Greeley, CO

11:10 PM MST on December 10, 2016 (GMT -0700)
Glenmere Park | | Change Station

Elev 4816 ft 40.41 °N, 104.71 °W | Updated 2 seconds ago

Partly Cloudy
Partly Cloudy
31.5 °F
Feels Like 32 °F
N
0.4
Wind Variable Wind from NNE
Gusts 3.4 mph

Today
High -- | Low -- °F
--% Chance of Precip.
Yesterday
High -- | Low -- °F
Precip. -- in
Pressure 29.86 in
Visibility 7.0 miles
Clouds Clear
Windchill 32 °F
Dew Point 22 °F
Humidity 68%
Rainfall 0.00 in
Snow Depth Not available.
7:11 AM 4:32 PM
Waxing Gibbous, 89% visible
METAR KGXY 110556Z AUTO 33005KT 7SM CLR M07/M08 A2972 RMK AO2 SLP109 T10671083 11017 21067 55001 FZRANO
Pressure 29.86 in
Visibility 7.0 miles
Clouds Clear
Windchill 32 °F
Dew Point 22 °F
Humidity 68%
Rainfall 0.00 in
Snow Depth Not available.
7:11 AM 4:32 PM
Waxing Gibbous, 89% visible
METAR KGXY 110556Z AUTO 33005KT 7SM CLR M07/M08 A2972 RMK AO2 SLP109 T10671083 11017 21067 55001 FZRANO

10-Day Weather Forecast

Almanac

Astronomy

Dec. 10, 2016 Rise Set
Actual Time
Civil Twilight
Nautical Twilight
Astronomical Twilight
Moon
Length of Visible Light
Length of Day
Tomorrow will be .
, % of the Moon is Illuminated

Today's Extremes

State Highs State Lows

Community

WunderPhotos

Upload Photos

1,956,706 photos uploaded!

WunderBlog® & News

Nearby

Air Quality

  Air Quality AQ Index Pollutant
Not available.

Snow Depth

Station Depth Elevation

Earthquake Activity

City Distance Mag. Time & Date
Minimum magnitude displayed is 2.5.

Coastal Water Temperatures

Place Temperature

Stations

Nearby Weather Stations

Station Location Temp. Windchill Dew Point Humidity Wind Precip. Elev Updated Type
                   

Watches & Warnings

There are currently no watches in effect.